Time;durP1;ratioP1;P1;durP2;ratioP2;P2;SDS_P1;SDS_P2;PMS_P1;PMS_P2;Temp;Humidity;BMP_temperature;BMP_pressure;BME280_temperature;BME280_humidity;BME280_pressure;Samples;Min_cycle;Max_cycle;Signal;HPM_P1;HPM_P2
2023/08/13 00:01:09;;;;;;;0.50;0.50;;;;;;;20.16;60.75;100312.53;4401112;32;33501;-84
2023/08/13 00:03:36;;;;;;;0.82;0.28;;;;;;;20.10;60.84;100318.37;4411860;32;33994;-84
2023/08/13 00:06:05;;;;;;;0.70;0.68;;;;;;;20.05;60.99;100315.19;4414042;32;33681;-85
2023/08/13 00:08:33;;;;;;;0.40;0.40;;;;;;;20.01;61.12;100311.03;4407859;32;34515;-85
2023/08/13 00:11:08;;;;;;;0.62;0.50;;;;;;;19.97;61.32;100320.25;4398819;32;33445;-85
2023/08/13 00:13:35;;;;;;;0.55;0.55;;;;;;;20.07;60.97;100318.59;4410994;32;34574;-85
2023/08/13 00:16:04;;;;;;;0.93;0.93;;;;;;;20.00;60.91;100316.50;4412849;32;34015;-85
2023/08/13 00:18:32;;;;;;;0.20;0.20;;;;;;;19.86;61.31;100315.72;4400709;32;33015;-85
2023/08/13 00:21:00;;;;;;;0.55;0.55;;;;;;;19.89;61.13;100323.53;4393236;32;33792;-85
2023/08/13 00:23:28;;;;;;;0.88;0.88;;;;;;;19.81;61.38;100327.75;4398240;32;33683;-84
2023/08/13 00:25:56;;;;;;;0.47;0.47;;;;;;;19.83;61.36;100323.09;4399962;32;33642;-83
2023/08/13 00:28:23;;;;;;;0.25;0.25;;;;;;;19.82;61.42;100329.44;4397126;32;33880;-84
2023/08/13 00:30:53;;;;;;;0.55;0.55;;;;;;;19.69;61.67;100324.97;4410628;32;33081;-84
2023/08/13 00:33:21;;;;;;;0.85;0.75;;;;;;;19.60;62.05;100324.78;4410036;32;33103;-82
2023/08/13 00:35:49;;;;;;;1.83;1.23;;;;;;;19.67;61.88;100321.56;4411698;32;33914;-82
2023/08/13 00:38:19;;;;;;;0.47;0.47;;;;;;;19.64;62.01;100323.59;4417562;32;33721;-83
2023/08/13 00:40:46;;;;;;;0.28;0.28;;;;;;;19.63;61.65;100322.75;4397561;32;32777;-83
2023/08/13 00:43:14;;;;;;;0.40;0.40;;;;;;;19.68;61.76;100322.41;4411671;32;32940;-84
2023/08/13 00:45:42;;;;;;;0.98;0.82;;;;;;;19.59;61.95;100313.19;4392073;32;33956;-83
2023/08/13 00:48:10;;;;;;;0.43;0.43;;;;;;;19.63;61.76;100314.72;4387014;32;32577;-83
2023/08/13 00:50:38;;;;;;;0.80;0.80;;;;;;;19.54;62.09;100312.69;4392636;32;32720;-83
2023/08/13 00:53:07;;;;;;;0.60;0.57;;;;;;;19.46;62.23;100312.38;4399573;32;33501;-83
2023/08/13 00:55:35;;;;;;;0.10;0.10;;;;;;;19.41;62.09;100315.37;4414940;32;33546;-84
2023/08/13 00:58:03;;;;;;;1.25;1.15;;;;;;;19.46;62.18;100320.41;4410132;32;33526;-83
2023/08/13 01:00:32;;;;;;;1.05;0.95;;;;;;;19.36;62.46;100324.72;4398688;32;32491;-83
2023/08/13 01:03:00;;;;;;;0.52;0.52;;;;;;;19.32;62.55;100320.53;4400442;32;33149;-83
2023/08/13 01:05:51;;;;;;;0.57;0.57;;;;;;;19.34;62.53;100318.63;4412507;32;34353;-83
2023/08/13 01:09:06;;;;;;;0.65;0.60;;;;;;;19.24;63.16;100318.44;4405109;32;31984;-83
2023/08/13 01:11:58;;;;;;;0.35;0.35;;;;;;;19.33;62.65;100319.59;4384647;32;32624;-83
2023/08/13 01:14:35;;;;;;;0.20;0.20;;;;;;;19.36;62.36;100316.69;4405227;32;32387;-84
2023/08/13 01:17:05;;;;;;;0.70;0.55;;;;;;;19.41;62.27;100319.88;4411395;32;33228;-84
2023/08/13 01:19:33;;;;;;;0.85;0.82;;;;;;;19.48;62.12;100320.31;4408636;32;34261;-84
2023/08/13 01:22:00;;;;;;;0.32;0.32;;;;;;;19.36;62.26;100311.31;4412935;32;32964;-84
2023/08/13 01:24:29;;;;;;;0.57;0.57;;;;;;;19.40;62.11;100316.34;4405441;32;33738;-84
2023/08/13 01:27:49;;;;;;;1.42;1.33;;;;;;;19.33;62.29;100319.59;4405845;32;33950;-83
2023/08/13 01:30:20;;;;;;;0.60;0.60;;;;;;;19.40;61.79;100331.56;4376329;32;34334;-84
2023/08/13 01:32:52;;;;;;;1.10;0.75;;;;;;;19.23;62.12;100322.06;4393443;32;32744;-84
2023/08/13 01:35:21;;;;;;;0.80;0.80;;;;;;;19.39;61.78;100325.34;4412870;32;33944;-84
2023/08/13 01:37:50;;;;;;;0.77;0.47;;;;;;;19.27;62.14;100328.03;4401378;32;33262;-84
2023/08/13 01:40:18;;;;;;;1.17;1.08;;;;;;;19.17;62.40;100331.38;4411701;32;34102;-83
2023/08/13 01:42:46;;;;;;;0.25;0.25;;;;;;;19.17;62.34;100334.06;4413023;32;33587;-84
2023/08/13 01:45:14;;;;;;;0.85;0.52;;;;;;;19.15;62.49;100327.97;4398760;32;33180;-84
2023/08/13 01:47:42;;;;;;;2.08;0.80;;;;;;;19.23;62.29;100335.47;4399072;32;34082;-84
2023/08/13 01:50:10;;;;;;;0.70;0.57;;;;;;;19.15;62.58;100338.69;4410549;32;33646;-84
2023/08/13 01:52:38;;;;;;;0.28;0.28;;;;;;;19.21;62.42;100339.19;4403535;32;33022;-84
2023/08/13 01:55:06;;;;;;;0.82;0.55;;;;;;;19.22;62.20;100335.56;4399104;32;33885;-84
2023/08/13 01:57:34;;;;;;;0.30;0.30;;;;;;;19.27;61.96;100344.12;4398442;32;33490;-83
2023/08/13 02:00:02;;;;;;;0.28;0.28;;;;;;;19.30;61.76;100327.84;4410929;32;33524;-84
2023/08/13 02:02:31;;;;;;;1.40;0.62;;;;;;;19.27;61.87;100328.91;4408729;32;34198;-84
2023/08/13 02:05:00;;;;;;;1.10;0.77;;;;;;;19.27;61.82;100333.41;4411053;32;33984;-83
2023/08/13 02:07:28;;;;;;;0.50;0.50;;;;;;;19.29;61.84;100336.84;4384592;32;34097;-83
2023/08/13 02:09:55;;;;;;;0.95;0.88;;;;;;;19.31;61.76;100334.91;4398238;32;32925;-84
2023/08/13 02:12:23;;;;;;;0.60;0.60;;;;;;;19.30;61.90;100327.84;4396073;32;34082;-84
2023/08/13 02:14:51;;;;;;;0.37;0.37;;;;;;;19.23;62.08;100321.19;4410985;32;34223;-84
2023/08/13 02:17:19;;;;;;;0.40;0.40;;;;;;;19.30;61.90;100330.53;4400421;32;32425;-84
2023/08/13 02:19:47;;;;;;;1.52;1.42;;;;;;;19.54;60.79;100335.94;4396284;32;34087;-83
2023/08/13 02:22:15;;;;;;;0.40;0.40;;;;;;;19.65;59.98;100336.91;4405318;32;32883;-84
2023/08/13 02:24:44;;;;;;;0.47;0.47;;;;;;;19.29;61.14;100337.69;4399016;32;34704;-84
2023/08/13 02:27:11;;;;;;;0.73;0.70;;;;;;;19.16;61.70;100337.69;4397578;32;34275;-83
2023/08/13 02:29:39;;;;;;;0.30;0.30;;;;;;;19.12;61.97;100335.34;4392608;32;33050;-84
2023/08/13 02:32:07;;;;;;;0.60;0.60;;;;;;;19.09;62.16;100340.94;4405844;32;33012;-84
2023/08/13 02:34:45;;;;;;;0.20;0.20;;;;;;;18.92;62.80;100344.78;4410112;32;33920;-84
2023/08/13 02:37:13;;;;;;;0.25;0.25;;;;;;;19.01;62.73;100343.28;4411710;32;33313;-84
2023/08/13 02:39:41;;;;;;;0.85;0.57;;;;;;;19.07;62.51;100337.50;4410735;32;33522;-84
2023/08/13 02:42:09;;;;;;;0.50;0.32;;;;;;;19.01;62.63;100338.78;4410520;32;33988;-84
2023/08/13 02:44:37;;;;;;;0.10;0.10;;;;;;;18.91;62.47;100343.09;4392942;32;32777;-84
2023/08/13 02:47:05;;;;;;;0.57;0.57;;;;;;;19.02;62.37;100343.16;4405015;32;34454;-84
2023/08/13 02:49:33;;;;;;;1.60;1.50;;;;;;;19.00;62.30;100347.78;4409030;32;34520;-84
2023/08/13 02:52:02;;;;;;;0.68;0.68;;;;;;;18.84;62.91;100347.12;4412396;32;32924;-84
2023/08/13 02:54:30;;;;;;;0.50;0.50;;;;;;;18.96;62.64;100343.62;4411767;32;33956;-84
2023/08/13 02:56:59;;;;;;;0.22;0.22;;;;;;;18.95;62.56;100349.09;4411632;32;33632;-84
2023/08/13 02:59:27;;;;;;;1.12;0.37;;;;;;;18.88;62.42;100343.28;4404930;32;33907;-84
2023/08/13 03:01:55;;;;;;;1.05;0.28;;;;;;;18.84;62.91;100349.81;4417158;32;32693;-85
2023/08/13 03:04:23;;;;;;;0.73;0.37;;;;;;;18.84;62.84;100342.63;4404898;32;32752;-84
2023/08/13 03:06:51;;;;;;;1.35;0.90;;;;;;;18.85;62.61;100339.00;4397513;32;33457;-84
2023/08/13 03:09:21;;;;;;;0.47;0.47;;;;;;;18.82;62.77;100335.69;4392669;32;33303;-85
2023/08/13 03:11:49;;;;;;;0.37;0.37;;;;;;;18.72;62.76;100332.78;4404914;32;33263;-84
2023/08/13 03:14:17;;;;;;;2.05;0.37;;;;;;;18.64;63.07;100340.44;4410166;32;32733;-84
2023/08/13 03:16:45;;;;;;;2.97;0.52;;;;;;;18.52;63.34;100342.16;4396060;32;33449;-86
2023/08/13 03:19:13;;;;;;;0.40;0.40;;;;;;;18.84;61.94;100341.78;4401617;32;33478;-86
2023/08/13 03:21:42;;;;;;;0.55;0.55;;;;;;;18.56;63.12;100351.69;4413884;32;31822;-86
2023/08/13 03:24:10;;;;;;;0.80;0.50;;;;;;;18.61;62.97;100352.22;4410121;32;33561;-86
2023/08/13 03:26:39;;;;;;;2.17;1.95;;;;;;;18.67;62.78;100345.59;4410884;32;32495;-86
2023/08/13 03:29:07;;;;;;;1.05;1.02;;;;;;;18.72;62.46;100342.66;4397923;32;32266;-86
2023/08/13 03:31:34;;;;;;;0.75;0.65;;;;;;;18.67;62.39;100346.44;4398044;32;33406;-86
2023/08/13 03:34:03;;;;;;;0.20;0.20;;;;;;;18.64;62.59;100346.66;4391665;32;32627;-86
2023/08/13 03:36:30;;;;;;;0.80;0.50;;;;;;;18.61;62.85;100341.53;4412524;32;33773;-86
2023/08/13 03:38:58;;;;;;;0.43;0.43;;;;;;;18.57;62.76;100336.50;4413961;32;34491;-86
2023/08/13 03:41:26;;;;;;;0.50;0.40;;;;;;;18.58;62.70;100347.09;4409340;32;32492;-83
2023/08/13 03:43:54;;;;;;;1.08;1.08;;;;;;;18.51;63.25;100335.06;4404216;32;34736;-83
2023/08/13 03:46:22;;;;;;;2.00;1.12;;;;;;;18.57;62.94;100333.81;4408989;32;33253;-84
2023/08/13 03:48:50;;;;;;;0.45;0.30;;;;;;;18.61;62.82;100330.84;4390709;32;33563;-83
2023/08/13 03:51:18;;;;;;;0.77;0.77;;;;;;;18.46;63.39;100334.53;4399092;32;33119;-83
2023/08/13 03:53:46;;;;;;;0.00;0.00;;;;;;;18.52;63.12;100336.81;4409921;32;33846;-83
2023/08/13 03:56:13;;;;;;;;;;;;;;;18.53;62.76;100327.81;4413986;32;36114;-83
2023/08/13 03:58:41;;;;;;;;;;;;;;;18.56;63.01;100316.94;4406750;32;34669;-83
2023/08/13 04:01:09;;;;;;;;;;;;;;;18.53;63.00;100332.31;4406964;32;32349;-83
2023/08/13 04:03:37;;;;;;;0.32;0.32;;;;;;;18.81;61.69;100337.50;4406466;32;33361;-83
2023/08/13 04:06:05;;;;;;;1.15;1.05;;;;;;;18.99;61.06;100334.50;4406544;32;34310;-83
2023/08/13 04:08:35;;;;;;;0.43;0.43;;;;;;;18.57;62.58;100345.37;4412556;32;33775;-83
2023/08/13 04:11:03;;;;;;;0.35;0.28;;;;;;;18.50;63.04;100349.41;4412858;32;32170;-83
2023/08/13 04:13:31;;;;;;;0.15;0.13;;;;;;;18.74;62.43;100338.03;4414514;32;33888;-84
2023/08/13 04:15:59;;;;;;;3.28;0.40;;;;;;;18.84;62.18;100339.09;4408287;32;34009;-84
2023/08/13 04:18:27;;;;;;;0.30;0.30;;;;;;;18.61;63.19;100337.97;4413429;32;33793;-84
2023/08/13 04:20:55;;;;;;;0.10;0.10;;;;;;;18.64;63.40;100335.97;4412822;32;33759;-84
2023/08/13 04:23:23;;;;;;;0.10;0.10;;;;;;;18.76;63.35;100334.31;4400056;32;33432;-84
2023/08/13 04:25:51;;;;;;;0.30;0.30;;;;;;;19.01;62.42;100328.09;4412463;32;33619;-84
2023/08/13 04:28:20;;;;;;;0.17;0.17;;;;;;;18.90;63.08;100333.34;4405729;32;33389;-84
2023/08/13 04:30:48;;;;;;;0.45;0.30;;;;;;;18.86;63.42;100340.72;4414640;32;33441;-84
2023/08/13 04:33:16;;;;;;;0.05;0.05;;;;;;;19.20;62.58;100343.69;4406333;32;33560;-84
2023/08/13 04:35:51;;;;;;;0.57;0.57;;;;;;;19.48;61.70;100341.75;4401652;32;33635;-83
2023/08/13 04:38:21;;;;;;;0.37;0.30;;;;;;;19.24;62.56;100349.72;4400028;32;32543;-83
2023/08/13 04:40:49;;;;;;;0.10;0.10;;;;;;;19.09;63.49;100340.94;4400246;32;32206;-83
2023/08/13 04:43:17;;;;;;;0.55;0.50;;;;;;;19.07;63.80;100349.06;4410536;32;33736;-83
2023/08/13 04:45:46;;;;;;;0.50;0.50;;;;;;;19.19;63.68;100353.56;4413565;32;33954;-83
2023/08/13 04:48:18;;;;;;;0.32;0.32;;;;;;;19.37;63.24;100345.16;4412977;32;33556;-82
2023/08/13 04:50:48;;;;;;;0.00;0.00;;;;;;;19.60;62.33;100349.75;4398054;32;33605;-83
2023/08/13 04:53:15;;;;;;;0.10;0.10;;;;;;;19.79;60.59;100346.59;4413532;32;32962;-83
2023/08/13 04:55:43;;;;;;;0.45;0.45;;;;;;;19.90;60.35;100353.88;4400156;32;32890;-84
2023/08/13 04:58:11;;;;;;;0.20;0.20;;;;;;;20.03;60.35;100343.06;4399981;32;33253;-83
2023/08/13 05:00:39;;;;;;;1.10;0.90;;;;;;;20.19;59.88;100349.88;4405706;32;33293;-84
2023/08/13 05:03:07;;;;;;;0.85;0.85;;;;;;;20.22;60.24;100354.12;4407112;32;34780;-83
2023/08/13 05:05:35;;;;;;;0.10;0.10;;;;;;;20.26;60.27;100354.75;4402983;32;33713;-83
2023/08/13 05:08:03;;;;;;;0.60;0.50;;;;;;;20.31;59.94;100353.44;4411335;32;33521;-84
2023/08/13 05:10:32;;;;;;;0.17;0.10;;;;;;;20.53;59.46;100359.91;4399606;32;33996;-83
2023/08/13 05:13:03;;;;;;;0.65;0.50;;;;;;;20.52;59.20;100361.72;4399422;32;33537;-83
2023/08/13 05:15:31;;;;;;;1.05;1.05;;;;;;;20.83;58.24;100362.03;4413649;32;33816;-83
2023/08/13 05:18:02;;;;;;;0.37;0.37;;;;;;;20.83;58.22;100359.34;4406662;32;34248;-83
2023/08/13 05:20:31;;;;;;;0.37;0.37;;;;;;;21.10;57.54;100362.59;4410445;32;32235;-83
2023/08/13 05:23:00;;;;;;;0.40;0.40;;;;;;;21.31;57.43;100353.81;4412070;32;33944;-83
2023/08/13 05:25:29;;;;;;;0.45;0.43;;;;;;;21.38;56.90;100360.44;4413552;32;32870;-84
2023/08/13 05:27:57;;;;;;;0.20;0.20;;;;;;;21.46;56.72;100374.12;4411556;32;33521;-83
2023/08/13 05:30:25;;;;;;;0.28;0.28;;;;;;;21.75;56.83;100360.16;4408249;32;32340;-83
2023/08/13 05:32:53;;;;;;;0.30;0.30;;;;;;;21.82;57.46;100364.03;4399126;32;34514;-83
2023/08/13 05:35:22;;;;;;;0.00;0.00;;;;;;;22.08;56.56;100370.84;4411710;32;32425;-84
2023/08/13 05:37:50;;;;;;;0.62;0.55;;;;;;;22.21;57.54;100362.59;4406424;32;33531;-83
2023/08/13 05:40:20;;;;;;;0.82;0.82;;;;;;;22.37;57.26;100367.59;4405392;32;34093;-83
2023/08/13 05:42:49;;;;;;;0.68;0.32;;;;;;;22.32;56.96;100367.13;4384622;32;32856;-83
2023/08/13 05:45:17;;;;;;;0.77;0.77;;;;;;;22.45;57.08;100374.00;4418066;32;33085;-84
2023/08/13 05:47:45;;;;;;;0.73;0.55;;;;;;;22.54;56.50;100369.69;4393358;32;32852;-84
2023/08/13 05:50:13;;;;;;;2.53;0.90;;;;;;;22.78;56.07;100365.87;4392906;32;32424;-83
2023/08/13 05:52:41;;;;;;;0.37;0.32;;;;;;;22.69;56.19;100364.84;4414187;32;33663;-84
2023/08/13 05:55:09;;;;;;;7.05;0.70;;;;;;;23.06;55.62;100361.69;4408872;32;34020;-84
2023/08/13 05:57:37;;;;;;;0.28;0.28;;;;;;;23.25;55.35;100356.41;4410671;32;34548;-84
2023/08/13 06:00:09;;;;;;;0.45;0.45;;;;;;;23.33;55.45;100364.69;4412934;32;34117;-84
2023/08/13 06:02:38;;;;;;;0.43;0.43;;;;;;;23.55;54.57;100357.38;4398626;32;32728;-84
2023/08/13 06:05:06;;;;;;;0.65;0.55;;;;;;;23.75;52.85;100368.12;4393998;32;32670;-84
2023/08/13 06:07:34;;;;;;;0.70;0.62;;;;;;;23.85;50.70;100370.00;4392988;32;32626;-85
2023/08/13 06:10:04;;;;;;;0.28;0.20;;;;;;;23.75;51.74;100365.44;4397392;32;30730;-85
2023/08/13 06:12:33;;;;;;;0.20;0.20;;;;;;;23.64;52.13;100368.25;4409232;32;33592;-85
2023/08/13 06:15:01;;;;;;;0.40;0.40;;;;;;;23.91;52.08;100364.03;4409649;32;33490;-85
2023/08/13 06:17:29;;;;;;;0.30;0.30;;;;;;;23.65;51.66;100369.94;4403992;32;32299;-86
2023/08/13 06:19:58;;;;;;;0.62;0.52;;;;;;;24.06;52.31;100365.34;4384200;32;33381;-86
2023/08/13 06:22:25;;;;;;;0.20;0.20;;;;;;;24.36;51.40;100366.25;4383931;32;34112;-86
2023/08/13 06:24:53;;;;;;;0.80;0.75;;;;;;;24.65;50.64;100359.00;4404356;32;33357;-86
2023/08/13 06:27:22;;;;;;;0.37;0.37;;;;;;;24.69;50.90;100371.22;4401030;32;33338;-85
2023/08/13 06:29:49;;;;;;;0.30;0.25;;;;;;;24.85;49.79;100356.25;4392177;32;33182;-85
2023/08/13 06:32:37;;;;;;;1.10;0.50;;;;;;;24.91;52.22;100363.78;4397460;32;32700;-85
2023/08/13 06:35:05;;;;;;;1.12;1.02;;;;;;;25.15;49.87;100360.62;4393786;32;34479;-85
2023/08/13 06:37:33;;;;;;;0.30;0.30;;;;;;;25.16;48.57;100363.19;4404191;32;33127;-87
2023/08/13 06:40:17;;;;;;;0.30;0.30;;;;;;;24.88;50.24;100359.53;4393915;32;32295;-84
2023/08/13 06:42:44;;;;;;;0.30;0.30;;;;;;;25.21;50.02;100363.59;4404807;32;33623;-85
2023/08/13 06:45:12;;;;;;;0.55;0.55;;;;;;;25.38;50.14;100366.50;4400955;32;33187;-85
2023/08/13 06:47:41;;;;;;;0.40;0.40;;;;;;;25.63;48.03;100364.97;4399014;32;32544;-85
2023/08/13 06:50:09;;;;;;;0.85;0.85;;;;;;;25.57;49.28;100371.84;4386286;32;32976;-84
2023/08/13 06:52:38;;;;;;;0.80;0.80;;;;;;;25.83;49.90;100368.44;4411004;32;33242;-83
2023/08/13 06:55:06;;;;;;;0.73;0.73;;;;;;;25.91;48.76;100379.37;4404762;32;33722;-83
2023/08/13 06:57:33;;;;;;;1.27;0.80;;;;;;;25.88;49.39;100368.87;4405413;32;30840;-83
2023/08/13 07:00:01;;;;;;;1.08;0.90;;;;;;;26.19;50.01;100378.31;4391938;32;32019;-84
2023/08/13 07:02:30;;;;;;;0.30;0.30;;;;;;;26.45;46.74;100374.91;4396440;32;33891;-82
2023/08/13 07:04:58;;;;;;;0.32;0.32;;;;;;;26.45;46.90;100380.31;4384696;32;33560;-84
2023/08/13 07:07:26;;;;;;;0.73;0.40;;;;;;;26.44;48.12;100378.59;4403485;32;33954;-84
2023/08/13 07:09:54;;;;;;;1.23;0.90;;;;;;;26.59;48.75;100379.75;4403278;32;32283;-84
2023/08/13 07:12:22;;;;;;;0.77;0.57;;;;;;;26.46;46.73;100382.84;4390837;32;32823;-84
2023/08/13 07:14:49;;;;;;;0.35;0.35;;;;;;;26.79;46.07;100383.97;4395065;32;33101;-84
2023/08/13 07:17:17;;;;;;;7.57;1.02;;;;;;;26.56;45.67;100388.19;4397238;32;33498;-84
2023/08/13 07:19:46;;;;;;;0.20;0.20;;;;;;;26.94;47.24;100394.25;4399204;32;32601;-84
2023/08/13 07:22:13;;;;;;;0.37;0.37;;;;;;;26.96;45.39;100393.06;4399605;32;32394;-84
2023/08/13 07:24:42;;;;;;;0.60;0.43;;;;;;;27.22;45.99;100387.69;4387368;32;33014;-84
2023/08/13 07:27:10;;;;;;;0.85;0.57;;;;;;;27.20;45.38;100389.69;4401490;32;33461;-84
2023/08/13 07:29:38;;;;;;;0.37;0.37;;;;;;;27.43;43.91;100384.59;4401664;32;33319;-83
2023/08/13 07:32:06;;;;;;;0.28;0.28;;;;;;;27.92;44.13;100384.00;4403336;32;32406;-82
2023/08/13 07:34:33;;;;;;;0.15;0.15;;;;;;;28.05;44.00;100384.34;4405548;32;33622;-82
2023/08/13 07:37:03;;;;;;;0.50;0.50;;;;;;;28.33;42.47;100374.03;4416908;32;33290;-81
2023/08/13 07:39:31;;;;;;;0.05;0.05;;;;;;;28.55;43.36;100369.88;4390177;32;33385;-83
2023/08/13 07:41:59;;;;;;;0.35;0.35;;;;;;;28.47;43.39;100372.56;4401844;32;32817;-83
2023/08/13 07:44:27;;;;;;;1.02;0.88;;;;;;;28.39;41.01;100367.13;4390809;32;32458;-83
2023/08/13 07:46:58;;;;;;;0.32;0.32;;;;;;;28.55;41.18;100370.72;4408167;32;33446;-83
2023/08/13 07:49:27;;;;;;;0.40;0.40;;;;;;;28.75;39.08;100371.22;4412159;32;32690;-83
2023/08/13 07:51:55;;;;;;;0.52;0.45;;;;;;;28.28;40.25;100379.97;4397460;32;32700;-83
2023/08/13 07:54:23;;;;;;;0.37;0.37;;;;;;;28.50;40.01;100377.66;4402937;32;33610;-83
2023/08/13 07:56:51;;;;;;;0.17;0.17;;;;;;;28.97;40.18;100371.56;4397316;32;34466;-83
2023/08/13 07:59:19;;;;;;;0.30;0.30;;;;;;;28.81;39.59;100375.09;4392769;32;32306;-83
2023/08/13 08:01:51;;;;;;;0.30;0.30;;;;;;;28.71;36.42;100378.00;4400483;32;32916;-83
2023/08/13 08:04:19;;;;;;;0.22;0.10;;;;;;;28.94;36.11;100370.00;4409758;32;31525;-82
2023/08/13 08:06:47;;;;;;;0.30;0.30;;;;;;;29.17;36.98;100369.31;4392199;32;33959;-83
2023/08/13 08:09:14;;;;;;;0.37;0.22;;;;;;;29.27;35.76;100359.94;4410441;32;33396;-83
2023/08/13 08:11:42;;;;;;;1.58;1.10;;;;;;;29.21;35.57;100365.22;4414089;32;32720;-82
2023/08/13 08:14:10;;;;;;;1.73;0.57;;;;;;;29.90;36.21;100368.19;4406081;32;33696;-83
2023/08/13 08:16:37;;;;;;;1.55;0.77;;;;;;;29.93;34.53;100365.13;4402040;32;32375;-84
2023/08/13 08:19:05;;;;;;;6.37;0.80;;;;;;;30.15;35.58;100368.94;4415305;32;33993;-83
2023/08/13 08:21:33;;;;;;;0.30;0.30;;;;;;;29.53;34.36;100366.97;4398878;32;32934;-83
2023/08/13 08:24:02;;;;;;;0.30;0.30;;;;;;;29.82;33.84;100361.78;4397000;32;33825;-83
2023/08/13 08:26:31;;;;;;;0.47;0.47;;;;;;;29.74;34.48;100355.53;4392663;32;32642;-82
2023/08/13 08:28:59;;;;;;;0.75;0.75;;;;;;;29.93;34.51;100357.81;4404775;32;34117;-82
2023/08/13 08:31:26;;;;;;;0.47;0.40;;;;;;;30.05;34.30;100367.28;4399631;32;33410;-83
2023/08/13 08:33:54;;;;;;;24.70;0.60;;;;;;;29.83;34.36;100370.81;4416512;32;33448;-83
2023/08/13 08:36:22;;;;;;;1.35;0.93;;;;;;;29.67;34.31;100369.00;4399881;32;33358;-83
2023/08/13 08:38:50;;;;;;;0.28;0.28;;;;;;;30.17;34.78;100366.91;4411617;32;33794;-83
2023/08/13 08:41:19;;;;;;;0.20;0.20;;;;;;;30.08;32.46;100363.34;4396681;32;33630;-83
2023/08/13 08:43:48;;;;;;;0.52;0.52;;;;;;;30.00;32.84;100368.81;4410650;32;33740;-83
2023/08/13 08:46:16;;;;;;;3.78;1.02;;;;;;;29.73;33.37;100365.59;4405611;32;33517;-83
2023/08/13 08:48:44;;;;;;;0.75;0.60;;;;;;;30.00;32.91;100366.09;4410390;32;34141;-83
2023/08/13 08:51:12;;;;;;;0.37;0.30;;;;;;;29.68;32.87;100367.16;4398474;32;34316;-83
2023/08/13 08:53:41;;;;;;;0.88;0.88;;;;;;;30.25;32.63;100359.53;4395275;32;33270;-82
2023/08/13 08:56:08;;;;;;;0.40;0.40;;;;;;;30.61;33.07;100362.44;4411396;32;34137;-83
2023/08/13 08:58:36;;;;;;;0.88;0.75;;;;;;;30.30;33.02;100362.53;4397320;32;32492;-82
2023/08/13 09:01:04;;;;;;;0.20;0.20;;;;;;;30.41;31.87;100346.78;4405772;32;33974;-83
2023/08/13 09:03:31;;;;;;;0.40;0.40;;;;;;;30.46;32.09;100349.81;4398535;32;33832;-83
2023/08/13 09:05:59;;;;;;;1.60;0.50;;;;;;;30.56;31.57;100344.97;4405961;32;33828;-83
2023/08/13 09:08:46;;;;;;;0.50;0.50;;;;;;;30.77;31.19;100347.03;4398411;32;31878;-83
2023/08/13 09:11:14;;;;;;;0.28;0.28;;;;;;;31.10;30.95;100336.66;4399173;32;32873;-82
2023/08/13 09:13:47;;;;;;;0.62;0.52;;;;;;;31.18;31.62;100333.81;4392079;32;33364;-83
2023/08/13 09:16:16;;;;;;;0.65;0.65;;;;;;;30.90;30.98;100338.19;4408723;32;34548;-83
2023/08/13 09:18:44;;;;;;;1.60;0.85;;;;;;;30.75;32.18;100339.03;4385915;32;33113;-83
2023/08/13 09:21:11;;;;;;;0.50;0.43;;;;;;;30.77;31.82;100339.72;4397419;32;33353;-83
2023/08/13 09:23:39;;;;;;;2.70;0.45;;;;;;;31.52;31.44;100340.59;4399989;32;33533;-83
2023/08/13 09:26:07;;;;;;;0.45;0.45;;;;;;;30.45;32.99;100342.69;4411472;32;32381;-82
2023/08/13 09:28:42;;;;;;;1.55;1.12;;;;;;;31.28;31.19;100328.94;4392952;32;32932;-83
2023/08/13 09:31:10;;;;;;;1.02;0.65;;;;;;;31.83;33.32;100333.03;4412506;32;33106;-84
2023/08/13 09:33:37;;;;;;;3.53;0.93;;;;;;;31.65;31.48;100329.00;4392406;32;33462;-82
2023/08/13 09:36:05;;;;;;;0.75;0.75;;;;;;;31.73;31.60;100335.22;4397152;32;34355;-82
2023/08/13 09:38:33;;;;;;;1.15;1.05;;;;;;;31.40;31.52;100336.66;4384566;32;32891;-84
2023/08/13 09:41:02;;;;;;;0.35;0.35;;;;;;;31.45;31.79;100334.22;4409273;32;33590;-84
2023/08/13 09:43:30;;;;;;;0.40;0.40;;;;;;;31.14;31.71;100329.75;4396463;32;33903;-84
2023/08/13 09:46:00;;;;;;;0.25;0.25;;;;;;;31.30;31.44;100332.34;4409994;32;33859;-84
2023/08/13 09:48:29;;;;;;;0.70;0.70;;;;;;;31.85;31.41;100330.94;4384796;32;33204;-84
2023/08/13 09:50:58;;;;;;;0.93;0.93;;;;;;;32.32;29.88;100324.09;4396373;32;33554;-82
2023/08/13 09:53:27;;;;;;;0.65;0.65;;;;;;;31.58;31.93;100328.94;4394165;32;33684;-82
2023/08/13 09:55:57;;;;;;;0.30;0.30;;;;;;;31.97;31.27;100325.84;4397307;32;33080;-82
2023/08/13 09:58:25;;;;;;;1.12;0.52;;;;;;;31.71;30.65;100331.81;4408966;32;32964;-82
2023/08/13 10:00:53;;;;;;;1.37;0.82;;;;;;;32.20;30.30;100331.13;4404586;32;34551;-82
2023/08/13 10:03:22;;;;;;;1.23;0.47;;;;;;;31.84;30.35;100328.44;4394051;32;33777;-83
2023/08/13 10:05:51;;;;;;;0.70;0.70;;;;;;;32.22;30.53;100326.31;4410061;32;33298;-82
2023/08/13 10:08:19;;;;;;;0.73;0.73;;;;;;;31.72;30.77;100322.59;4390740;32;32007;-82
2023/08/13 10:10:48;;;;;;;0.55;0.40;;;;;;;32.40;31.22;100312.22;4397978;32;33292;-82
2023/08/13 10:13:16;;;;;;;0.45;0.40;;;;;;;31.80;30.35;100311.53;4410749;32;33753;-82
2023/08/13 10:15:45;;;;;;;10.98;0.65;;;;;;;32.07;29.57;100309.16;4390461;32;31914;-82
2023/08/13 10:18:15;;;;;;;0.73;0.40;;;;;;;32.47;30.11;100318.56;4409710;32;33727;-82
2023/08/13 10:20:46;;;;;;;0.93;0.93;;;;;;;32.52;31.59;100316.13;4399756;32;33338;-82
2023/08/13 10:23:16;;;;;;;0.15;0.15;;;;;;;32.62;29.98;100315.78;4399016;32;33910;-83
2023/08/13 10:25:44;;;;;;;0.40;0.30;;;;;;;32.80;29.78;100315.25;4410938;32;32852;-82
2023/08/13 10:28:42;;;;;;;0.60;0.55;;;;;;;32.99;28.14;100308.28;4387901;32;32413;-82
2023/08/13 10:31:22;;;;;;;0.20;0.20;;;;;;;32.66;28.56;100311.59;4391563;32;33028;-82
2023/08/13 10:34:01;;;;;;;0.52;0.30;;;;;;;32.98;28.87;100307.44;4403766;32;33605;-82
2023/08/13 10:36:52;;;;;;;0.20;0.20;;;;;;;32.86;28.65;100312.59;4415651;32;33675;-82
2023/08/13 10:39:36;;;;;;;0.50;0.50;;;;;;;33.00;28.29;100312.72;4416864;32;32908;-82
2023/08/13 10:42:27;;;;;;;1.40;0.70;;;;;;;32.78;28.98;100309.16;4399715;32;33169;-82
2023/08/13 10:45:07;;;;;;;0.55;0.50;;;;;;;33.12;28.40;100306.47;4404375;32;33495;-82
2023/08/13 10:47:39;;;;;;;0.75;0.60;;;;;;;33.24;28.02;100303.19;4409939;32;33034;-82
2023/08/13 10:50:15;;;;;;;0.55;0.50;;;;;;;33.06;28.62;100301.81;4388903;32;34159;-82
2023/08/13 10:52:46;;;;;;;0.30;0.30;;;;;;;32.85;29.89;100299.97;4403512;32;33618;-82
2023/08/13 10:55:17;;;;;;;0.20;0.20;;;;;;;33.15;28.14;100293.44;4397751;32;32808;-82
2023/08/13 10:57:50;;;;;;;0.47;0.47;;;;;;;32.81;28.63;100298.69;4398540;32;33010;-82
2023/08/13 11:00:19;;;;;;;0.40;0.40;;;;;;;33.04;28.39;100292.94;4408655;32;33852;-82
2023/08/13 11:03:24;;;;;;;0.70;0.70;;;;;;;32.37;28.06;100297.03;4396570;32;32879;-82
2023/08/13 11:05:52;;;;;;;0.30;0.20;;;;;;;32.93;28.98;100285.31;4402911;32;33967;-82
2023/08/13 11:08:24;;;;;;;1.02;0.57;;;;;;;33.00;28.22;100286.22;4394027;32;34674;-82
2023/08/13 11:11:13;;;;;;;0.37;0.37;;;;;;;33.11;28.44;100288.37;4410044;32;33474;-82
2023/08/13 11:13:41;;;;;;;1.02;0.37;;;;;;;33.11;28.25;100282.06;4403778;32;33117;-83
2023/08/13 11:16:09;;;;;;;0.95;0.62;;;;;;;33.49;28.32;100277.00;4397996;32;33210;-83
2023/08/13 11:18:37;;;;;;;0.45;0.45;;;;;;;33.84;28.08;100275.00;4402949;32;33129;-82
2023/08/13 11:21:05;;;;;;;0.32;0.32;;;;;;;33.80;26.81;100270.97;4393138;32;33347;-82
2023/08/13 11:23:33;;;;;;;0.77;0.45;;;;;;;33.35;26.64;100280.69;4405967;32;34653;-83
2023/08/13 11:26:03;;;;;;;0.90;0.90;;;;;;;33.87;26.77;100281.97;4397224;32;34037;-82
2023/08/13 11:28:31;;;;;;;0.35;0.35;;;;;;;34.22;26.37;100271.69;4403256;32;34890;-83
2023/08/13 11:30:59;;;;;;;0.45;0.45;;;;;;;34.03;25.96;100286.22;4418061;32;33387;-84
2023/08/13 11:33:27;;;;;;;0.30;0.30;;;;;;;34.06;25.36;100283.09;4385386;32;32533;-82
2023/08/13 11:35:56;;;;;;;0.68;0.68;;;;;;;34.34;25.62;100277.41;4410526;32;33688;-82
2023/08/13 11:38:24;;;;;;;0.20;0.20;;;;;;;34.19;25.43;100274.03;4395948;32;32853;-83